createdAt,value
2023-01-21T00:01:06.428Z,1018.37
2023-01-21T00:03:33.524Z,1018.40
2023-01-21T00:06:00.350Z,1018.48
2023-01-21T00:08:29.933Z,1018.28
2023-01-21T00:10:56.895Z,1018.41
2023-01-21T00:13:23.664Z,1018.24
2023-01-21T00:15:50.971Z,1018.16
2023-01-21T00:18:19.553Z,1018.36
2023-01-21T00:20:46.343Z,1018.23
2023-01-21T00:23:13.159Z,1018.19
2023-01-21T00:25:39.920Z,1018.28
2023-01-21T00:28:06.830Z,1018.16
2023-01-21T00:30:33.800Z,1018.07
2023-01-21T00:33:00.902Z,1018.21
2023-01-21T00:35:29.994Z,1018.12
2023-01-21T00:37:57.207Z,1018.08
2023-01-21T00:40:24.025Z,1018.04
2023-01-21T00:42:50.791Z,1017.89
2023-01-21T00:45:18.865Z,1018.03
2023-01-21T00:47:45.843Z,1017.99
2023-01-21T00:50:12.679Z,1018.01
2023-01-21T00:52:41.964Z,1018.16
2023-01-21T00:55:09.407Z,1018.06
2023-01-21T00:57:36.446Z,1018.02
2023-01-21T01:00:04.131Z,1017.97
2023-01-21T01:02:30.984Z,1018.09
2023-01-21T01:04:57.717Z,1018.05
2023-01-21T01:07:24.743Z,1018.06
2023-01-21T01:09:53.033Z,1017.94
2023-01-21T01:12:20.394Z,1017.90
2023-01-21T01:14:47.654Z,1018.00
2023-01-21T01:17:14.407Z,1017.75
2023-01-21T01:19:41.215Z,1017.90
2023-01-21T01:22:08.065Z,1017.93
2023-01-21T01:24:35.138Z,1017.82
2023-01-21T01:27:03.667Z,1017.82
2023-01-21T01:29:30.465Z,1017.65
2023-01-21T01:31:57.315Z,1017.80
2023-01-21T01:34:24.323Z,1017.95
2023-01-21T01:36:53.438Z,1018.00
2023-01-21T01:39:20.204Z,1017.91
2023-01-21T01:41:47.027Z,1017.79
2023-01-21T01:45:02.993Z,1017.94
2023-01-21T01:47:37.157Z,1018.03
2023-01-21T01:50:09.006Z,1017.97
2023-01-21T01:52:36.142Z,1018.03
2023-01-21T01:55:04.639Z,1018.05
2023-01-21T01:57:35.772Z,1018.03
2023-01-21T02:00:05.396Z,1017.81
2023-01-21T02:02:35.068Z,1017.77
2023-01-21T02:05:05.199Z,1017.85
2023-01-21T02:07:40.083Z,1017.88
2023-01-21T02:10:07.578Z,1017.87
2023-01-21T02:12:35.357Z,1017.79
2023-01-21T02:15:02.604Z,1017.81
2023-01-21T02:17:43.680Z,1017.80
2023-01-21T02:20:49.142Z,1017.95
2023-01-21T02:23:25.283Z,1018.16
2023-01-21T02:26:37.583Z,1017.88
2023-01-21T02:29:37.322Z,1017.85
2023-01-21T02:32:29.036Z,1017.69
2023-01-21T02:35:04.227Z,1017.66
2023-01-21T02:37:36.589Z,1017.47
2023-01-21T02:40:10.906Z,1017.60
2023-01-21T02:42:45.856Z,1017.57
2023-01-21T02:45:23.427Z,1017.50
2023-01-21T02:47:57.008Z,1017.42
2023-01-21T02:50:29.030Z,1017.35
2023-01-21T02:52:57.055Z,1017.12
2023-01-21T02:55:28.208Z,1017.27
2023-01-21T02:57:58.320Z,1017.26
2023-01-21T03:00:31.327Z,1017.24
2023-01-21T03:03:34.311Z,1017.25
2023-01-21T03:06:33.382Z,1017.29
2023-01-21T03:09:07.750Z,1017.37
2023-01-21T03:11:35.310Z,1017.21
2023-01-21T03:14:09.420Z,1017.28
2023-01-21T03:16:44.452Z,1017.10
2023-01-21T03:19:14.883Z,1017.05
2023-01-21T03:21:44.678Z,1017.01
2023-01-21T03:24:14.863Z,1017.01
2023-01-21T03:26:45.809Z,1016.96
2023-01-21T03:29:16.899Z,1017.05
2023-01-21T03:31:49.143Z,1017.04
2023-01-21T03:34:18.413Z,1016.97
2023-01-21T03:36:51.547Z,1016.85
2023-01-21T03:39:25.164Z,1016.87
2023-01-21T03:41:52.020Z,1016.96
2023-01-21T03:44:19.539Z,1016.96
2023-01-21T03:46:55.699Z,1016.82
2023-01-21T03:49:29.401Z,1016.98
2023-01-21T03:52:01.694Z,1016.90
2023-01-21T03:54:29.068Z,1016.93
2023-01-21T03:56:55.950Z,1016.83
2023-01-21T03:59:22.936Z,1016.90
2023-01-21T04:01:50.038Z,1016.82
2023-01-21T04:04:17.337Z,1016.74
2023-01-21T04:06:44.275Z,1016.72
2023-01-21T04:09:14.892Z,1016.78
2023-01-21T04:11:42.173Z,1016.75
2023-01-21T04:14:09.022Z,1016.83
2023-01-21T04:16:36.547Z,1016.58
2023-01-21T04:19:03.373Z,1016.57
2023-01-21T04:21:30.217Z,1016.71
2023-01-21T04:23:57.304Z,1016.62
2023-01-21T04:26:25.437Z,1016.61
2023-01-21T04:28:52.222Z,1016.45
2023-01-21T04:31:19.163Z,1016.42
2023-01-21T04:33:46.071Z,1016.42
2023-01-21T04:36:12.852Z,1016.50
2023-01-21T04:38:39.695Z,1016.55
2023-01-21T04:41:06.463Z,1016.38
2023-01-21T04:43:37.642Z,1016.40
2023-01-21T04:46:04.715Z,1016.35
2023-01-21T04:48:31.473Z,1016.34
2023-01-21T04:50:58.568Z,1016.14
2023-01-21T04:53:25.629Z,1016.15
2023-01-21T04:55:52.689Z,1016.39
2023-01-21T04:58:19.775Z,1016.42
2023-01-21T05:00:47.983Z,1016.41
2023-01-21T05:03:14.849Z,1016.48
2023-01-21T05:05:41.731Z,1016.42
2023-01-21T05:08:09.517Z,1016.59
2023-01-21T05:10:36.555Z,1016.60
2023-01-21T05:13:04.318Z,1016.58
2023-01-21T05:15:31.635Z,1016.64
2023-01-21T05:18:00.984Z,1016.52
2023-01-21T05:20:28.054Z,1016.73
2023-01-21T05:22:55.001Z,1016.99
2023-01-21T05:25:22.396Z,1016.65
2023-01-21T05:27:53.762Z,1016.68
2023-01-21T05:30:21.514Z,1016.87
2023-01-21T05:32:51.024Z,1016.91
2023-01-21T05:35:23.267Z,1016.99
2023-01-21T05:37:50.942Z,1017.00
2023-01-21T05:40:19.125Z,1017.08
2023-01-21T05:42:46.865Z,1017.32
2023-01-21T05:45:14.621Z,1016.98
2023-01-21T05:47:42.726Z,1016.95
2023-01-21T05:50:15.790Z,1017.02
2023-01-21T05:52:45.365Z,1017.18
2023-01-21T05:55:12.464Z,1017.19
2023-01-21T05:57:39.444Z,1017.19
2023-01-21T06:00:07.803Z,1017.27
2023-01-21T06:02:35.065Z,1017.13
2023-01-21T06:05:02.437Z,1017.20
2023-01-21T06:07:29.600Z,1017.14
2023-01-21T06:09:59.882Z,1017.20
2023-01-21T06:12:27.229Z,1016.64
2023-01-21T06:14:54.969Z,1017.21
2023-01-21T06:17:21.967Z,1017.23
2023-01-21T06:19:49.247Z,1017.08
2023-01-21T06:22:16.825Z,1017.02
2023-01-21T06:24:43.926Z,1017.24
2023-01-21T06:27:12.466Z,1017.31
2023-01-21T06:29:39.895Z,1017.27
2023-01-21T06:32:06.897Z,1017.36
2023-01-21T06:34:33.730Z,1017.39
2023-01-21T06:37:00.566Z,1017.44
2023-01-21T06:39:27.804Z,1017.38
2023-01-21T06:41:55.387Z,1017.33
2023-01-21T06:44:23.818Z,1017.44
2023-01-21T06:47:00.741Z,1017.37
2023-01-21T06:49:27.906Z,1017.50
2023-01-21T06:51:55.504Z,1017.61
2023-01-21T06:54:22.398Z,1017.59
2023-01-21T06:56:49.563Z,1017.54
2023-01-21T06:59:17.012Z,1017.54
2023-01-21T07:01:45.827Z,1017.53
2023-01-21T07:04:13.165Z,1017.55
2023-01-21T07:06:41.200Z,1017.74
2023-01-21T07:09:09.126Z,1017.74
2023-01-21T07:11:36.256Z,1017.83
2023-01-21T07:14:04.125Z,1017.84
2023-01-21T07:16:31.010Z,1017.87
2023-01-21T07:18:59.311Z,1017.99
2023-01-21T07:21:26.221Z,1017.90
2023-01-21T07:23:53.353Z,1018.12
2023-01-21T07:26:20.191Z,1018.19
2023-01-21T07:28:47.064Z,1018.10
2023-01-21T07:31:14.067Z,1017.92
2023-01-21T07:33:41.075Z,1017.95
2023-01-21T07:36:09.447Z,1017.76
2023-01-21T07:38:36.308Z,1017.75
2023-01-21T07:41:03.197Z,1017.81
2023-01-21T07:43:30.074Z,1017.69
2023-01-21T07:46:00.119Z,1017.75
2023-01-21T07:48:27.161Z,1017.86
2023-01-21T07:50:57.150Z,1017.55
2023-01-21T07:53:25.374Z,1017.65
2023-01-21T07:55:52.206Z,1017.65
2023-01-21T07:58:19.165Z,1017.66
2023-01-21T08:00:46.009Z,1017.54
2023-01-21T08:03:12.796Z,1017.54
2023-01-21T08:05:39.579Z,1017.54
2023-01-21T08:08:06.447Z,1017.59
2023-01-21T08:10:34.720Z,1017.58
2023-01-21T08:13:01.599Z,1017.51
2023-01-21T08:15:28.382Z,1017.55
2023-01-21T08:17:55.153Z,1017.47
2023-01-21T08:20:22.004Z,1017.63
2023-01-21T08:22:49.155Z,1017.71
2023-01-21T08:25:16.950Z,1017.63
2023-01-21T08:27:45.477Z,1017.52
2023-01-21T08:30:12.924Z,1017.64
2023-01-21T08:32:39.698Z,1017.76
2023-01-21T08:35:08.254Z,1017.71
2023-01-21T08:37:35.790Z,1017.83
2023-01-21T08:40:02.690Z,1017.79
2023-01-21T08:42:29.455Z,1017.82
2023-01-21T08:44:57.578Z,1017.97
2023-01-21T08:47:24.389Z,1017.92
2023-01-21T08:49:51.510Z,1017.91
2023-01-21T08:52:18.560Z,1017.92
2023-01-21T08:54:45.360Z,1018.11
2023-01-21T08:57:12.241Z,1018.07
2023-01-21T08:59:39.039Z,1017.90
2023-01-21T09:02:07.498Z,1018.02
2023-01-21T09:04:34.524Z,1018.06
2023-01-21T09:07:01.267Z,1018.00
2023-01-21T09:09:28.099Z,1018.00
2023-01-21T09:11:54.890Z,1017.89
2023-01-21T09:14:21.682Z,1017.88
2023-01-21T09:16:48.716Z,1017.82
2023-01-21T09:19:17.072Z,1017.85
2023-01-21T09:21:43.931Z,1017.67
2023-01-21T09:24:10.673Z,1017.68
2023-01-21T09:26:37.460Z,1017.65
2023-01-21T09:29:04.322Z,1017.47
2023-01-21T09:31:31.174Z,1017.55
2023-01-21T09:33:59.515Z,1017.36
2023-01-21T09:36:29.407Z,1017.36
2023-01-21T09:38:56.535Z,1017.36
2023-01-21T09:41:27.471Z,1017.24
2023-01-21T09:44:01.564Z,1017.13
2023-01-21T09:46:32.414Z,1016.99
2023-01-21T09:49:01.261Z,1016.94
2023-01-21T09:51:43.381Z,1016.80
2023-01-21T09:54:18.468Z,1017.02
2023-01-21T09:56:58.239Z,1016.68
2023-01-21T09:59:38.526Z,1016.70
2023-01-21T10:02:15.990Z,1016.67
2023-01-21T10:04:49.718Z,1016.61
2023-01-21T10:07:25.058Z,1016.62
2023-01-21T10:10:06.529Z,1016.66
2023-01-21T10:12:54.694Z,1016.56
2023-01-21T10:15:49.588Z,1016.51
2023-01-21T10:18:21.376Z,1016.37
2023-01-21T10:20:52.478Z,1016.39
2023-01-21T10:23:24.885Z,1016.24
2023-01-21T10:25:51.867Z,1016.04
2023-01-21T10:28:22.816Z,1015.81
2023-01-21T10:30:51.758Z,1015.75
2023-01-21T10:33:21.564Z,1015.73
2023-01-21T10:36:07.135Z,1015.58
2023-01-21T10:38:43.606Z,1015.59
2023-01-21T10:41:28.426Z,1015.55
2023-01-21T10:44:02.639Z,1015.62
2023-01-21T10:46:38.044Z,1015.58
2023-01-21T10:49:23.221Z,1015.50
2023-01-21T10:51:56.930Z,1015.49
2023-01-21T10:54:36.064Z,1015.55
2023-01-21T10:57:12.879Z,1015.34
2023-01-21T10:59:41.738Z,1015.16
2023-01-21T11:02:20.622Z,1015.02
2023-01-21T11:04:47.688Z,1014.86
2023-01-21T11:07:17.725Z,1014.74
2023-01-21T11:09:47.639Z,1014.61
2023-01-21T11:12:18.731Z,1014.53
2023-01-21T11:14:49.603Z,1014.60
2023-01-21T11:17:30.645Z,1014.68
2023-01-21T11:20:02.286Z,1014.66
2023-01-21T11:22:31.056Z,1014.53
2023-01-21T11:25:00.148Z,1014.35
2023-01-21T11:27:34.955Z,1014.26
2023-01-21T11:30:01.731Z,1014.19
2023-01-21T11:32:30.417Z,1014.27
2023-01-21T11:35:03.043Z,1014.21
2023-01-21T11:37:31.908Z,1014.09
2023-01-21T11:40:03.539Z,1014.13
2023-01-21T11:42:30.558Z,1014.03
2023-01-21T11:44:59.896Z,1014.31
2023-01-21T11:47:29.608Z,1014.52
2023-01-21T11:50:03.112Z,1014.54
2023-01-21T11:52:29.875Z,1014.45
2023-01-21T11:54:56.590Z,1014.41
2023-01-21T11:57:30.806Z,1014.58
2023-01-21T12:00:05.007Z,1014.29
2023-01-21T12:02:36.450Z,1014.50
2023-01-21T12:05:11.610Z,1014.45
2023-01-21T12:07:41.355Z,1014.35
2023-01-21T12:10:26.121Z,1014.33
2023-01-21T12:13:16.269Z,1014.34
2023-01-21T12:16:18.902Z,1014.52
2023-01-21T12:18:59.377Z,1014.60
2023-01-21T12:21:34.104Z,1014.83
2023-01-21T12:24:12.645Z,1014.79
2023-01-21T12:26:43.257Z,1014.85
2023-01-21T12:29:36.234Z,1014.89
2023-01-21T12:32:06.518Z,1015.12
2023-01-21T12:34:38.663Z,1015.10
2023-01-21T12:37:14.657Z,1015.34
2023-01-21T12:39:43.337Z,1015.25
2023-01-21T12:42:15.303Z,1015.08
2023-01-21T12:44:48.721Z,1015.05
2023-01-21T12:47:28.205Z,1015.12
2023-01-21T12:50:07.183Z,1015.09
2023-01-21T12:52:39.962Z,1015.24
2023-01-21T12:55:16.707Z,1015.18
2023-01-21T12:57:52.394Z,1015.22
2023-01-21T13:00:22.824Z,1015.20
2023-01-21T13:03:00.125Z,1015.61
2023-01-21T13:05:35.234Z,1015.61
2023-01-21T13:08:18.211Z,1015.73
2023-01-21T13:10:50.513Z,1015.65
2023-01-21T13:13:19.685Z,1015.84
2023-01-21T13:15:52.400Z,1015.92
2023-01-21T13:18:25.977Z,1015.81
2023-01-21T13:20:56.014Z,1016.05
2023-01-21T13:23:29.282Z,1015.92
2023-01-21T13:26:03.306Z,1015.93
2023-01-21T13:28:36.407Z,1016.06
2023-01-21T13:31:12.673Z,1016.10
2023-01-21T13:33:51.809Z,1016.08
2023-01-21T13:36:42.246Z,1016.18
2023-01-21T13:39:20.680Z,1016.22
2023-01-21T13:42:00.773Z,1016.27
2023-01-21T13:44:54.912Z,1016.27
2023-01-21T13:47:34.906Z,1016.46
2023-01-21T13:50:13.112Z,1016.58
2023-01-21T13:52:51.088Z,1016.62
2023-01-21T13:55:33.400Z,1016.58
2023-01-21T13:58:04.598Z,1016.68
2023-01-21T14:00:34.144Z,1016.69
2023-01-21T14:03:21.578Z,1016.64
2023-01-21T14:05:53.884Z,1016.73
2023-01-21T14:08:26.684Z,1016.67
2023-01-21T14:10:57.882Z,1016.71
2023-01-21T14:13:47.869Z,1016.76
2023-01-21T14:16:38.069Z,1016.71
2023-01-21T14:19:28.318Z,1016.63
2023-01-21T14:22:12.977Z,1016.77
2023-01-21T14:24:54.381Z,1016.83
2023-01-21T14:27:29.014Z,1016.86
2023-01-21T14:30:04.657Z,1017.05
2023-01-21T14:32:40.377Z,1017.14
2023-01-21T14:35:20.800Z,1017.17
2023-01-21T14:37:55.560Z,1017.21
2023-01-21T14:40:27.735Z,1017.18
2023-01-21T14:42:55.125Z,1017.15
2023-01-21T14:45:24.370Z,1017.17
2023-01-21T14:47:55.392Z,1017.42
2023-01-21T14:50:53.074Z,1017.37
2023-01-21T14:53:25.192Z,1017.47
2023-01-21T14:56:20.124Z,1017.46
2023-01-21T14:58:50.335Z,1017.45
2023-01-21T15:01:37.351Z,1017.48
2023-01-21T15:07:20.424Z,1017.54
2023-01-21T15:46:08.783Z,1018.47
2023-01-21T15:52:59.415Z,1018.52
2023-01-21T15:55:43.131Z,1018.50
2023-01-21T15:58:20.475Z,1018.58
2023-01-21T16:01:00.037Z,1018.53
2023-01-21T16:03:34.457Z,1018.52
2023-01-21T16:06:07.498Z,1018.68
2023-01-21T16:09:03.004Z,1018.72
2023-01-21T16:12:09.073Z,1018.74
2023-01-21T16:14:48.659Z,1018.67
2023-01-21T16:17:19.933Z,1018.70
2023-01-21T16:19:50.260Z,1018.64
2023-01-21T16:22:22.286Z,1018.83
2023-01-21T16:24:55.247Z,1018.80
2023-01-21T16:27:24.812Z,1018.88
2023-01-21T16:29:55.548Z,1018.83
2023-01-21T16:32:37.047Z,1018.96
2023-01-21T16:35:19.877Z,1018.91
2023-01-21T16:38:08.204Z,1018.91
2023-01-21T16:41:17.336Z,1019.07
2023-01-21T16:43:49.150Z,1019.09
2023-01-21T16:46:19.432Z,1019.03
2023-01-21T16:48:49.985Z,1019.06
2023-01-21T16:51:20.060Z,1019.03
2023-01-21T16:53:48.104Z,1019.14
2023-01-21T16:56:26.586Z,1019.26
2023-01-21T16:58:56.655Z,1019.31
2023-01-21T17:01:27.252Z,1019.35
2023-01-21T17:03:54.589Z,1019.42
2023-01-21T17:06:25.474Z,1019.49
2023-01-21T17:08:56.744Z,1019.40
2023-01-21T17:11:23.598Z,1019.47
2023-01-21T17:13:52.233Z,1019.49
2023-01-21T17:16:33.367Z,1019.69
2023-01-21T17:22:15.964Z,1019.98
2023-01-21T17:25:09.404Z,1020.02
2023-01-21T17:27:37.958Z,1019.96
2023-01-21T17:30:28.378Z,1020.05
2023-01-21T17:32:58.271Z,1019.82
2023-01-21T17:35:26.613Z,1019.84
2023-01-21T17:37:55.640Z,1020.00
2023-01-21T17:40:28.836Z,1020.14
2023-01-21T17:42:57.330Z,1020.07
2023-01-21T17:45:31.748Z,1020.16
2023-01-21T17:48:12.511Z,1020.15
2023-01-21T17:50:46.514Z,1020.23
2023-01-21T17:53:19.963Z,1020.25
2023-01-21T17:55:56.697Z,1020.30
2023-01-21T17:58:44.045Z,1020.35
2023-01-21T18:01:11.347Z,1020.23
2023-01-21T18:03:42.946Z,1020.34
2023-01-21T18:06:20.321Z,1020.34
2023-01-21T18:08:53.337Z,1020.45
2023-01-21T18:11:23.725Z,1020.54
2023-01-21T18:13:50.551Z,1020.54
2023-01-21T18:16:17.679Z,1020.50
2023-01-21T18:18:47.100Z,1020.50
2023-01-21T18:21:20.241Z,1020.56
2023-01-21T18:23:48.309Z,1020.65
2023-01-21T18:26:22.950Z,1020.69
2023-01-21T18:28:50.381Z,1020.74
2023-01-21T18:31:17.328Z,1020.73
2023-01-21T18:33:49.138Z,1020.62
2023-01-21T18:36:16.880Z,1020.72
2023-01-21T18:38:45.191Z,1020.82
2023-01-21T18:41:12.419Z,1020.98
2023-01-21T18:43:42.044Z,1020.88
2023-01-21T18:46:12.611Z,1020.96
2023-01-21T18:48:39.504Z,1020.91
2023-01-21T18:51:09.162Z,1020.97
2023-01-21T18:53:36.798Z,1020.81
2023-01-21T18:56:07.529Z,1020.90
2023-01-21T18:58:34.825Z,1021.02
2023-01-21T19:01:10.834Z,1021.02
2023-01-21T19:03:44.149Z,1021.17
2023-01-21T19:06:16.477Z,1021.13
2023-01-21T19:08:43.395Z,1021.17
2023-01-21T19:11:12.419Z,1021.18
2023-01-21T19:13:39.357Z,1021.18
2023-01-21T19:16:13.671Z,1021.12
2023-01-21T19:18:40.486Z,1021.33
2023-01-21T19:21:07.701Z,1021.31
2023-01-21T19:23:35.986Z,1021.32
2023-01-21T19:26:05.136Z,1021.27
2023-01-21T19:28:33.703Z,1021.44
2023-01-21T19:31:01.281Z,1021.36
2023-01-21T19:33:28.641Z,1021.50
2023-01-21T19:36:02.658Z,1021.51
2023-01-21T19:38:29.483Z,1021.50
2023-01-21T19:41:04.112Z,1021.50
2023-01-21T19:43:30.862Z,1021.55
2023-01-21T19:45:58.086Z,1021.56
2023-01-21T19:48:25.452Z,1021.58
2023-01-21T19:50:52.329Z,1021.43
2023-01-21T19:53:19.383Z,1021.51
2023-01-21T19:55:46.985Z,1021.59
2023-01-21T19:58:18.167Z,1021.63
2023-01-21T20:00:45.642Z,1021.58
2023-01-21T20:03:12.550Z,1021.58
2023-01-21T20:05:39.753Z,1021.55
2023-01-21T20:08:09.436Z,1021.63
2023-01-21T20:10:36.484Z,1021.73
2023-01-21T20:13:03.631Z,1021.90
2023-01-21T20:15:33.774Z,1021.81
2023-01-21T20:18:02.815Z,1021.83
2023-01-21T20:20:31.328Z,1021.82
2023-01-21T20:22:58.649Z,1022.01
2023-01-21T20:25:29.342Z,1021.89
2023-01-21T20:27:59.325Z,1022.01
2023-01-21T20:30:29.724Z,1022.08
2023-01-21T20:32:59.041Z,1021.93
2023-01-21T20:35:26.825Z,1021.97
2023-01-21T20:37:56.299Z,1022.07
2023-01-21T20:40:25.812Z,1022.09
2023-01-21T20:42:54.780Z,1022.12
2023-01-21T20:45:27.235Z,1022.03
2023-01-21T20:47:56.154Z,1022.10
2023-01-21T20:50:29.322Z,1022.11
2023-01-21T20:52:56.076Z,1022.13
2023-01-21T20:55:27.171Z,1022.18
2023-01-21T20:57:54.373Z,1022.19
2023-01-21T21:00:24.229Z,1022.21
2023-01-21T21:02:50.988Z,1022.27
2023-01-21T21:05:20.616Z,1022.29
2023-01-21T21:07:49.972Z,1022.34
2023-01-21T21:10:21.579Z,1022.39
2023-01-21T21:12:49.091Z,1022.43
2023-01-21T21:15:17.407Z,1022.27
2023-01-21T21:17:44.828Z,1022.44
2023-01-21T21:20:16.376Z,1022.51
2023-01-21T21:22:43.317Z,1022.47
2023-01-21T21:25:15.470Z,1022.36
2023-01-21T21:27:42.371Z,1022.49
2023-01-21T21:30:13.112Z,1022.57
2023-01-21T21:32:39.971Z,1022.60
2023-01-21T21:35:08.040Z,1022.74
2023-01-21T21:37:34.793Z,1022.78
2023-01-21T21:40:01.600Z,1022.91
2023-01-21T21:42:30.542Z,1022.80
2023-01-21T21:44:57.280Z,1022.85
2023-01-21T21:47:24.036Z,1022.86
2023-01-21T21:49:50.950Z,1022.85
2023-01-21T21:52:17.838Z,1022.89
2023-01-21T21:54:44.858Z,1022.90
2023-01-21T21:57:11.965Z,1022.85
2023-01-21T21:59:40.092Z,1022.97
2023-01-21T22:02:10.188Z,1022.98
2023-01-21T22:04:37.034Z,1023.05
2023-01-21T22:07:03.866Z,1023.08
2023-01-21T22:09:30.640Z,1023.26
2023-01-21T22:11:57.369Z,1023.26
2023-01-21T22:14:24.207Z,1023.32
2023-01-21T22:16:52.519Z,1023.31
2023-01-21T22:19:19.401Z,1023.42
2023-01-21T22:21:46.255Z,1023.26
2023-01-21T22:24:13.037Z,1023.26
2023-01-21T22:26:39.768Z,1023.25
2023-01-21T22:29:06.551Z,1023.35
2023-01-21T22:31:34.252Z,1023.43
2023-01-21T22:34:02.547Z,1023.40
2023-01-21T22:36:30.596Z,1023.39
2023-01-21T22:38:58.347Z,1023.37
2023-01-21T22:41:25.603Z,1023.27
2023-01-21T22:43:52.679Z,1023.27
2023-01-21T22:46:21.801Z,1023.38
2023-01-21T22:48:48.703Z,1023.36
2023-01-21T22:51:18.521Z,1023.45
2023-01-21T22:53:45.873Z,1023.55
2023-01-21T22:56:13.873Z,1023.53
2023-01-21T22:58:40.809Z,1023.58
2023-01-21T23:01:08.745Z,1023.61
2023-01-21T23:03:37.193Z,1023.40
2023-01-21T23:06:04.985Z,1023.51
2023-01-21T23:08:35.566Z,1023.39
2023-01-21T23:11:04.571Z,1023.36
2023-01-21T23:13:33.479Z,1023.30
2023-01-21T23:16:01.064Z,1023.29
2023-01-21T23:18:29.068Z,1023.40
2023-01-21T23:20:56.335Z,1023.31
2023-01-21T23:23:23.762Z,1023.26
2023-01-21T23:25:51.945Z,1023.44
2023-01-21T23:28:19.115Z,1023.51
2023-01-21T23:30:46.353Z,1023.52
2023-01-21T23:33:13.239Z,1023.56
2023-01-21T23:35:40.027Z,1023.55
2023-01-21T23:38:06.845Z,1023.56
2023-01-21T23:40:33.714Z,1023.51
2023-01-21T23:43:01.843Z,1023.38
2023-01-21T23:45:28.619Z,1023.42
2023-01-21T23:47:55.428Z,1023.37
2023-01-21T23:50:22.446Z,1023.48
2023-01-21T23:52:49.259Z,1023.48
2023-01-21T23:55:16.151Z,1023.42
2023-01-21T23:57:42.940Z,1023.38
